Terminal Aerodrome Forecast
Issued by NWS

Home | Current Version | Previous Version | Text Only | Print | Product List | Glossary On
Versions: 1 2 3 4 5 6 7 8 9 10 11 12 13 14
005
FTUS45 KRIW 300529
TAFLND
TAF
KLND 300529Z 3006/3106 26007KT P6SM FEW120
     FM302200 34008KT P6SM VCSH SCT120 BKN200
     FM310300 26007KT P6SM FEW120 SCT200=

USA.gov is the U.S. government's official web portal to all federal, state and local government web resources and services.